Mascotte, Florida
Current Conditions -  °F | °C
As of 6:53 PM on Saturday 22 Nov 2014 (Local Time) from KLEE Reporting Station
Overcast Overcast  
Wind Chill: 67°   Ceiling: 3600
Heat Index: 67°   Visibility: 10mi
Dew Point: 65°   Wind: 10mph
Humidity: 93%   Direction: 90°E
Pressure: 30.15"   Gusts: NA
Location:  28.58°N, 81.89°W
Report Text: KLEE 222353Z 09009KT 10SM OVC036 19/18 A3015 RMK AO2 SLP209 60006 T01940183 10206 20194 58007
Loading
Personal Weather Stations






























Interactive Weather Map New forecast layout! Learn more

10-Day Weather Forecast

Advertisements
Track Severe Weather on mobile